sensor_id;sensor_type;location;lat;lon;timestamp;noise_LAeq;noise_LA_min;noise_LA_max;noise_LA01;noise_LA95
46393;Laerm;32099;53.588;10.176;2023-11-19T00:00:01;52.10;47.89;65.81;;
46393;Laerm;32099;53.588;10.176;2023-11-19T00:02:27;52.49;48.14;64.55;;
46393;Laerm;32099;53.588;10.176;2023-11-19T00:04:53;51.50;48.74;62.01;;
46393;Laerm;32099;53.588;10.176;2023-11-19T00:07:19;54.10;50.98;67.69;;
46393;Laerm;32099;53.588;10.176;2023-11-19T00:09:44;52.79;48.82;65.26;;
46393;Laerm;32099;53.588;10.176;2023-11-19T00:12:10;54.55;48.38;73.32;;
46393;Laerm;32099;53.588;10.176;2023-11-19T00:14:36;55.67;48.68;69.00;;
46393;Laerm;32099;53.588;10.176;2023-11-19T00:17:04;56.94;50.04;67.98;;
46393;Laerm;32099;53.588;10.176;2023-11-19T00:19:30;54.33;48.86;66.76;;
46393;Laerm;32099;53.588;10.176;2023-11-19T00:21:55;52.46;48.72;66.42;;
46393;Laerm;32099;53.588;10.176;2023-11-19T00:24:21;60.23;47.72;77.69;;
46393;Laerm;32099;53.588;10.176;2023-11-19T00:26:47;52.31;48.39;67.25;;
46393;Laerm;32099;53.588;10.176;2023-11-19T00:29:12;60.31;50.24;79.13;;
46393;Laerm;32099;53.588;10.176;2023-11-19T00:31:38;53.75;50.96;66.14;;
46393;Laerm;32099;53.588;10.176;2023-11-19T00:34:06;61.66;51.32;80.48;;
46393;Laerm;32099;53.588;10.176;2023-11-19T00:36:32;55.22;51.31;73.53;;
46393;Laerm;32099;53.588;10.176;2023-11-19T00:38:58;54.46;50.67;68.53;;
46393;Laerm;32099;53.588;10.176;2023-11-19T00:41:24;54.49;50.83;63.68;;
46393;Laerm;32099;53.588;10.176;2023-11-19T00:43:49;56.36;50.53;67.85;;
46393;Laerm;32099;53.588;10.176;2023-11-19T00:46:16;54.47;49.92;66.77;;
46393;Laerm;32099;53.588;10.176;2023-11-19T00:48:42;54.16;49.73;67.92;;
46393;Laerm;32099;53.588;10.176;2023-11-19T00:51:11;63.27;50.05;80.26;;
46393;Laerm;32099;53.588;10.176;2023-11-19T00:53:37;57.40;50.35;68.55;;
46393;Laerm;32099;53.588;10.176;2023-11-19T00:56:04;64.91;59.07;71.08;;
46393;Laerm;32099;53.588;10.176;2023-11-19T00:58:29;65.14;61.42;73.97;;
46393;Laerm;32099;53.588;10.176;2023-11-19T01:00:55;63.34;56.27;70.30;;
46393;Laerm;32099;53.588;10.176;2023-11-19T01:03:21;62.66;55.67;71.66;;
46393;Laerm;32099;53.588;10.176;2023-11-19T01:05:47;61.90;53.99;73.37;;
46393;Laerm;32099;53.588;10.176;2023-11-19T01:08:15;56.86;51.98;72.34;;
46393;Laerm;32099;53.588;10.176;2023-11-19T01:10:41;65.38;55.87;71.62;;
46393;Laerm;32099;53.588;10.176;2023-11-19T01:13:09;63.88;59.61;68.70;;
46393;Laerm;32099;53.588;10.176;2023-11-19T01:15:35;61.54;55.61;70.33;;
46393;Laerm;32099;53.588;10.176;2023-11-19T01:18:01;58.75;53.46;74.02;;
46393;Laerm;32099;53.588;10.176;2023-11-19T01:20:27;57.53;52.69;67.71;;
46393;Laerm;32099;53.588;10.176;2023-11-19T01:22:52;55.20;51.02;67.51;;
46393;Laerm;32099;53.588;10.176;2023-11-19T01:25:21;53.90;50.26;71.01;;
46393;Laerm;32099;53.588;10.176;2023-11-19T01:27:46;53.15;50.06;65.00;;
46393;Laerm;32099;53.588;10.176;2023-11-19T01:30:13;60.68;53.80;71.38;;
46393;Laerm;32099;53.588;10.176;2023-11-19T01:32:39;57.83;53.32;67.73;;
46393;Laerm;32099;53.588;10.176;2023-11-19T01:35:05;61.87;57.11;73.27;;
46393;Laerm;32099;53.588;10.176;2023-11-19T01:37:30;61.73;55.26;71.62;;
46393;Laerm;32099;53.588;10.176;2023-11-19T01:39:56;58.76;52.05;71.11;;
46393;Laerm;32099;53.588;10.176;2023-11-19T01:42:24;60.69;50.84;78.60;;
46393;Laerm;32099;53.588;10.176;2023-11-19T01:45:00;53.23;49.88;65.80;;
46393;Laerm;32099;53.588;10.176;2023-11-19T01:47:26;53.09;49.68;66.15;;
46393;Laerm;32099;53.588;10.176;2023-11-19T01:49:52;52.56;49.06;67.23;;
46393;Laerm;32099;53.588;10.176;2023-11-19T01:52:18;52.19;48.39;71.31;;
46393;Laerm;32099;53.588;10.176;2023-11-19T01:54:45;52.80;48.64;66.45;;
46393;Laerm;32099;53.588;10.176;2023-11-19T01:57:12;50.98;47.95;64.78;;
46393;Laerm;32099;53.588;10.176;2023-11-19T01:59:41;51.64;48.19;66.37;;
46393;Laerm;32099;53.588;10.176;2023-11-19T02:02:07;51.92;48.04;65.65;;
46393;Laerm;32099;53.588;10.176;2023-11-19T02:04:33;56.66;51.37;65.12;;
46393;Laerm;32099;53.588;10.176;2023-11-19T02:07:00;60.91;54.94;68.09;;
46393;Laerm;32099;53.588;10.176;2023-11-19T02:09:26;67.09;59.88;72.06;;
46393;Laerm;32099;53.588;10.176;2023-11-19T02:11:52;63.87;56.67;70.92;;
46393;Laerm;32099;53.588;10.176;2023-11-19T02:14:18;60.23;54.36;70.54;;
46393;Laerm;32099;53.588;10.176;2023-11-19T02:16:47;61.47;55.69;71.24;;
46393;Laerm;32099;53.588;10.176;2023-11-19T02:19:13;55.05;50.40;67.67;;
46393;Laerm;32099;53.588;10.176;2023-11-19T02:21:39;53.83;49.80;67.01;;
46393;Laerm;32099;53.588;10.176;2023-11-19T02:24:07;53.11;50.05;68.44;;
46393;Laerm;32099;53.588;10.176;2023-11-19T02:26:39;55.86;52.26;66.28;;
46393;Laerm;32099;53.588;10.176;2023-11-19T02:29:09;61.33;51.74;69.08;;
46393;Laerm;32099;53.588;10.176;2023-11-19T02:31:35;54.32;49.68;70.57;;
46393;Laerm;32099;53.588;10.176;2023-11-19T02:34:01;53.04;49.37;63.76;;
46393;Laerm;32099;53.588;10.176;2023-11-19T02:36:27;53.44;49.91;71.25;;
46393;Laerm;32099;53.588;10.176;2023-11-19T02:38:52;58.33;48.37;75.57;;
46393;Laerm;32099;53.588;10.176;2023-11-19T02:41:18;51.98;48.13;62.89;;
46393;Laerm;32099;53.588;10.176;2023-11-19T02:43:44;51.90;48.42;63.98;;
46393;Laerm;32099;53.588;10.176;2023-11-19T02:46:12;52.61;48.33;64.40;;
46393;Laerm;32099;53.588;10.176;2023-11-19T02:48:38;52.06;49.00;62.84;;
46393;Laerm;32099;53.588;10.176;2023-11-19T02:51:06;59.70;50.77;70.70;;
46393;Laerm;32099;53.588;10.176;2023-11-19T02:53:32;53.74;49.57;71.45;;
46393;Laerm;32099;53.588;10.176;2023-11-19T02:55:58;54.69;49.17;68.65;;
46393;Laerm;32099;53.588;10.176;2023-11-19T02:58:23;59.46;50.00;70.24;;
46393;Laerm;32099;53.588;10.176;2023-11-19T03:00:49;52.89;48.43;68.85;;
46393;Laerm;32099;53.588;10.176;2023-11-19T03:03:18;51.40;47.53;67.55;;
46393;Laerm;32099;53.588;10.176;2023-11-19T03:05:43;51.13;47.54;64.22;;
46393;Laerm;32099;53.588;10.176;2023-11-19T03:08:09;51.33;47.78;64.79;;
46393;Laerm;32099;53.588;10.176;2023-11-19T03:10:35;58.31;47.59;77.27;;
46393;Laerm;32099;53.588;10.176;2023-11-19T03:13:02;57.97;47.07;77.01;;
46393;Laerm;32099;53.588;10.176;2023-11-19T03:15:27;60.31;47.83;79.28;;
46393;Laerm;32099;53.588;10.176;2023-11-19T03:17:53;60.09;47.54;78.10;;
46393;Laerm;32099;53.588;10.176;2023-11-19T03:20:22;51.21;47.47;62.72;;
46393;Laerm;32099;53.588;10.176;2023-11-19T03:22:48;50.93;47.52;61.97;;
46393;Laerm;32099;53.588;10.176;2023-11-19T03:25:14;50.89;47.56;64.91;;
46393;Laerm;32099;53.588;10.176;2023-11-19T03:27:40;50.88;47.40;65.96;;
46393;Laerm;32099;53.588;10.176;2023-11-19T03:30:07;49.49;46.29;66.21;;
46393;Laerm;32099;53.588;10.176;2023-11-19T03:32:33;49.33;46.34;64.50;;
46393;Laerm;32099;53.588;10.176;2023-11-19T03:34:59;49.60;46.17;64.20;;
46393;Laerm;32099;53.588;10.176;2023-11-19T03:37:28;49.80;46.47;68.57;;
46393;Laerm;32099;53.588;10.176;2023-11-19T03:39:54;49.30;46.66;61.97;;
46393;Laerm;32099;53.588;10.176;2023-11-19T03:42:21;48.94;46.15;61.78;;
46393;Laerm;32099;53.588;10.176;2023-11-19T03:44:47;48.44;45.37;58.78;;
46393;Laerm;32099;53.588;10.176;2023-11-19T03:47:13;59.54;45.69;79.52;;
46393;Laerm;32099;53.588;10.176;2023-11-19T03:49:39;57.07;45.54;76.77;;
46393;Laerm;32099;53.588;10.176;2023-11-19T03:52:05;59.31;45.55;79.74;;
46393;Laerm;32099;53.588;10.176;2023-11-19T03:54:33;47.48;45.28;60.23;;
46393;Laerm;32099;53.588;10.176;2023-11-19T03:56:59;47.57;45.37;57.84;;
46393;Laerm;32099;53.588;10.176;2023-11-19T03:59:24;49.20;44.63;59.68;;
46393;Laerm;32099;53.588;10.176;2023-11-19T04:01:50;48.02;45.07;57.39;;
46393;Laerm;32099;53.588;10.176;2023-11-19T04:04:16;47.56;44.65;64.78;;
46393;Laerm;32099;53.588;10.176;2023-11-19T04:06:41;65.69;45.19;73.71;;
46393;Laerm;32099;53.588;10.176;2023-11-19T04:09:07;54.90;47.18;66.36;;
46393;Laerm;32099;53.588;10.176;2023-11-19T04:11:36;50.98;46.58;65.54;;
46393;Laerm;32099;53.588;10.176;2023-11-19T04:14:01;49.91;46.46;62.81;;
46393;Laerm;32099;53.588;10.176;2023-11-19T04:16:27;50.35;46.47;70.52;;
46393;Laerm;32099;53.588;10.176;2023-11-19T04:18:53;49.75;46.27;65.52;;
46393;Laerm;32099;53.588;10.176;2023-11-19T04:21:19;59.98;46.41;79.22;;
46393;Laerm;32099;53.588;10.176;2023-11-19T04:23:45;53.21;46.45;60.47;;
46393;Laerm;32099;53.588;10.176;2023-11-19T04:26:11;61.61;47.31;77.60;;
46393;Laerm;32099;53.588;10.176;2023-11-19T04:28:39;51.58;48.57;64.48;;
46393;Laerm;32099;53.588;10.176;2023-11-19T04:31:05;55.69;47.63;65.27;;
46393;Laerm;32099;53.588;10.176;2023-11-19T04:33:31;50.35;45.74;63.56;;
46393;Laerm;32099;53.588;10.176;2023-11-19T04:35:57;60.12;46.46;80.12;;
46393;Laerm;32099;53.588;10.176;2023-11-19T04:38:23;49.26;46.23;60.99;;
46393;Laerm;32099;53.588;10.176;2023-11-19T04:40:48;49.33;45.94;65.56;;
46393;Laerm;32099;53.588;10.176;2023-11-19T04:43:14;49.30;45.68;69.02;;
46393;Laerm;32099;53.588;10.176;2023-11-19T04:45:43;49.91;45.97;63.91;;
46393;Laerm;32099;53.588;10.176;2023-11-19T05:20:01;47.49;44.71;65.71;;
46393;Laerm;32099;53.588;10.176;2023-11-19T05:22:26;46.93;44.47;60.24;;
46393;Laerm;32099;53.588;10.176;2023-11-19T05:24:52;46.80;44.75;62.51;;
46393;Laerm;32099;53.588;10.176;2023-11-19T05:27:18;47.57;45.06;62.36;;
46393;Laerm;32099;53.588;10.176;2023-11-19T05:29:43;47.59;44.95;68.70;;
46393;Laerm;32099;53.588;10.176;2023-11-19T05:32:09;46.76;44.48;58.29;;
46393;Laerm;32099;53.588;10.176;2023-11-19T05:34:35;47.30;44.54;61.79;;
46393;Laerm;32099;53.588;10.176;2023-11-19T05:37:04;48.43;44.94;64.86;;
46393;Laerm;32099;53.588;10.176;2023-11-19T05:39:30;46.91;44.45;61.02;;
46393;Laerm;32099;53.588;10.176;2023-11-19T05:41:56;48.11;45.25;61.55;;
46393;Laerm;32099;53.588;10.176;2023-11-19T05:44:22;49.83;45.08;62.19;;
46393;Laerm;32099;53.588;10.176;2023-11-19T05:46:47;48.97;45.81;64.77;;
46393;Laerm;32099;53.588;10.176;2023-11-19T05:49:13;49.20;45.57;61.33;;
46393;Laerm;32099;53.588;10.176;2023-11-19T05:51:39;47.75;45.86;59.79;;
46393;Laerm;32099;53.588;10.176;2023-11-19T05:54:08;48.79;45.78;67.29;;
46393;Laerm;32099;53.588;10.176;2023-11-19T05:56:34;48.95;45.70;65.22;;
46393;Laerm;32099;53.588;10.176;2023-11-19T05:59:00;51.32;45.21;79.63;;
46393;Laerm;32099;53.588;10.176;2023-11-19T06:01:25;48.50;45.29;67.40;;
46393;Laerm;32099;53.588;10.176;2023-11-19T06:03:51;48.22;45.35;62.73;;
46393;Laerm;32099;53.588;10.176;2023-11-19T06:06:17;47.12;44.54;58.51;;
46393;Laerm;32099;53.588;10.176;2023-11-19T06:08:42;47.82;45.16;58.76;;
46393;Laerm;32099;53.588;10.176;2023-11-19T06:11:12;51.47;44.87;76.57;;
46393;Laerm;32099;53.588;10.176;2023-11-19T06:13:38;47.89;44.82;58.87;;
46393;Laerm;32099;53.588;10.176;2023-11-19T06:16:05;53.85;45.29;74.49;;
46393;Laerm;32099;53.588;10.176;2023-11-19T06:18:31;48.02;45.19;59.75;;
46393;Laerm;32099;53.588;10.176;2023-11-19T06:20:56;47.30;45.48;55.87;;
46393;Laerm;32099;53.588;10.176;2023-11-19T06:23:22;49.16;45.56;67.15;;
46393;Laerm;32099;53.588;10.176;2023-11-19T06:25:47;51.14;45.34;69.36;;
46393;Laerm;32099;53.588;10.176;2023-11-19T06:28:16;48.96;45.33;59.52;;
46393;Laerm;32099;53.588;10.176;2023-11-19T06:30:41;47.72;45.44;56.46;;
46393;Laerm;32099;53.588;10.176;2023-11-19T06:33:07;48.04;45.38;56.13;;
46393;Laerm;32099;53.588;10.176;2023-11-19T06:35:33;49.27;45.99;58.70;;
46393;Laerm;32099;53.588;10.176;2023-11-19T06:37:59;49.20;46.47;62.90;;
46393;Laerm;32099;53.588;10.176;2023-11-19T06:40:25;48.66;46.09;54.09;;
46393;Laerm;32099;53.588;10.176;2023-11-19T06:42:51;50.48;45.45;66.23;;
46393;Laerm;32099;53.588;10.176;2023-11-19T06:45:19;48.68;45.58;59.16;;
46393;Laerm;32099;53.588;10.176;2023-11-19T06:47:45;48.22;45.38;56.57;;
46393;Laerm;32099;53.588;10.176;2023-11-19T06:50:11;49.15;45.24;59.66;;
46393;Laerm;32099;53.588;10.176;2023-11-19T06:52:37;48.22;44.93;60.48;;
46393;Laerm;32099;53.588;10.176;2023-11-19T06:55:03;53.96;45.08;74.82;;
46393;Laerm;32099;53.588;10.176;2023-11-19T06:57:29;50.02;45.80;63.19;;
46393;Laerm;32099;53.588;10.176;2023-11-19T06:59:55;61.34;46.32;70.95;;
46393;Laerm;32099;53.588;10.176;2023-11-19T07:02:23;51.11;47.13;70.31;;
46393;Laerm;32099;53.588;10.176;2023-11-19T07:04:49;69.79;48.12;77.54;;
46393;Laerm;32099;53.588;10.176;2023-11-19T07:07:14;74.11;57.15;79.98;;
46393;Laerm;32099;53.588;10.176;2023-11-19T07:09:40;62.29;53.59;74.69;;
46393;Laerm;32099;53.588;10.176;2023-11-19T07:12:06;60.50;55.07;68.58;;
46393;Laerm;32099;53.588;10.176;2023-11-19T07:14:32;71.17;52.12;101.45;;
46393;Laerm;32099;53.588;10.176;2023-11-19T07:16:57;59.74;51.25;74.68;;
46393;Laerm;32099;53.588;10.176;2023-11-19T07:19:26;70.48;53.18;100.29;;
46393;Laerm;32099;53.588;10.176;2023-11-19T07:21:52;60.30;51.47;74.00;;
46393;Laerm;32099;53.588;10.176;2023-11-19T07:24:17;63.97;50.78;79.37;;
46393;Laerm;32099;53.588;10.176;2023-11-19T07:26:43;54.02;47.49;71.06;;
46393;Laerm;32099;53.588;10.176;2023-11-19T07:29:09;52.96;47.78;74.66;;
46393;Laerm;32099;53.588;10.176;2023-11-19T07:31:35;56.32;47.41;73.59;;
46393;Laerm;32099;53.588;10.176;2023-11-19T07:34:01;51.20;47.49;66.49;;
46393;Laerm;32099;53.588;10.176;2023-11-19T07:36:29;50.57;47.08;69.40;;
46393;Laerm;32099;53.588;10.176;2023-11-19T07:38:55;60.65;47.40;79.50;;
46393;Laerm;32099;53.588;10.176;2023-11-19T07:41:20;58.57;47.21;78.61;;
46393;Laerm;32099;53.588;10.176;2023-11-19T07:43:46;58.06;47.32;76.52;;
46393;Laerm;32099;53.588;10.176;2023-11-19T07:46:12;56.80;47.06;72.90;;
46393;Laerm;32099;53.588;10.176;2023-11-19T07:48:38;55.31;47.47;74.87;;
46393;Laerm;32099;53.588;10.176;2023-11-19T07:51:04;50.97;46.69;62.06;;
46393;Laerm;32099;53.588;10.176;2023-11-19T07:53:32;57.31;47.07;75.49;;
46393;Laerm;32099;53.588;10.176;2023-11-19T07:55:58;55.25;46.85;72.29;;
46393;Laerm;32099;53.588;10.176;2023-11-19T07:58:24;50.79;46.45;65.73;;
46393;Laerm;32099;53.588;10.176;2023-11-19T08:00:49;60.66;47.54;80.12;;
46393;Laerm;32099;53.588;10.176;2023-11-19T08:03:15;76.54;50.03;94.32;;
46393;Laerm;32099;53.588;10.176;2023-11-19T08:05:41;50.31;46.65;58.81;;
46393;Laerm;32099;53.588;10.176;2023-11-19T08:08:06;50.23;46.29;59.18;;
46393;Laerm;32099;53.588;10.176;2023-11-19T08:10:34;49.52;46.22;58.68;;
46393;Laerm;32099;53.588;10.176;2023-11-19T08:13:00;50.64;46.86;64.57;;
46393;Laerm;32099;53.588;10.176;2023-11-19T08:15:26;50.03;47.02;58.49;;
46393;Laerm;32099;53.588;10.176;2023-11-19T08:17:51;52.90;46.76;68.00;;
46393;Laerm;32099;53.588;10.176;2023-11-19T08:20:17;55.45;47.66;69.71;;
46393;Laerm;32099;53.588;10.176;2023-11-19T08:22:43;58.42;48.40;69.92;;
46393;Laerm;32099;53.588;10.176;2023-11-19T08:25:09;54.85;47.93;64.77;;
46393;Laerm;32099;53.588;10.176;2023-11-19T08:27:37;51.66;47.66;68.29;;
46393;Laerm;32099;53.588;10.176;2023-11-19T08:30:04;51.61;47.57;70.29;;
46393;Laerm;32099;53.588;10.176;2023-11-19T08:32:30;51.75;47.24;59.79;;
46393;Laerm;32099;53.588;10.176;2023-11-19T08:34:56;55.27;48.71;70.23;;
46393;Laerm;32099;53.588;10.176;2023-11-19T08:37:21;58.21;48.19;73.66;;
46393;Laerm;32099;53.588;10.176;2023-11-19T08:39:47;54.51;47.47;70.52;;
46393;Laerm;32099;53.588;10.176;2023-11-19T08:42:13;51.81;47.56;64.01;;
46393;Laerm;32099;53.588;10.176;2023-11-19T08:44:42;54.27;47.73;68.03;;
46393;Laerm;32099;53.588;10.176;2023-11-19T08:47:08;57.26;47.75;74.09;;
46393;Laerm;32099;53.588;10.176;2023-11-19T08:49:34;53.96;47.92;70.60;;
46393;Laerm;32099;53.588;10.176;2023-11-19T08:51:59;51.34;47.81;61.22;;
46393;Laerm;32099;53.588;10.176;2023-11-19T08:54:25;52.02;47.56;66.13;;
46393;Laerm;32099;53.588;10.176;2023-11-19T08:56:50;62.52;48.12;78.51;;
46393;Laerm;32099;53.588;10.176;2023-11-19T08:59:16;64.51;47.74;94.04;;
46393;Laerm;32099;53.588;10.176;2023-11-19T09:01:45;51.39;47.80;67.41;;
46393;Laerm;32099;53.588;10.176;2023-11-19T09:04:11;56.52;48.28;73.44;;
46393;Laerm;32099;53.588;10.176;2023-11-19T09:06:36;62.71;48.18;77.62;;
46393;Laerm;32099;53.588;10.176;2023-11-19T09:09:02;60.46;48.24;76.48;;
46393;Laerm;32099;53.588;10.176;2023-11-19T09:11:28;54.76;47.57;73.90;;
46393;Laerm;32099;53.588;10.176;2023-11-19T09:13:54;54.85;47.82;70.75;;
46393;Laerm;32099;53.588;10.176;2023-11-19T09:16:20;57.84;48.23;74.90;;
46393;Laerm;32099;53.588;10.176;2023-11-19T09:18:48;55.70;48.12;72.62;;
46393;Laerm;32099;53.588;10.176;2023-11-19T09:21:14;56.35;47.51;72.42;;
46393;Laerm;32099;53.588;10.176;2023-11-19T09:23:39;55.30;49.14;68.09;;
46393;Laerm;32099;53.588;10.176;2023-11-19T09:26:05;58.81;51.19;73.46;;
46393;Laerm;32099;53.588;10.176;2023-11-19T09:28:31;58.52;48.97;77.84;;
46393;Laerm;32099;53.588;10.176;2023-11-19T09:30:57;59.20;49.29;75.77;;
46393;Laerm;32099;53.588;10.176;2023-11-19T09:33:22;52.84;48.53;68.82;;
46393;Laerm;32099;53.588;10.176;2023-11-19T09:35:51;57.91;49.79;75.87;;
46393;Laerm;32099;53.588;10.176;2023-11-19T09:38:17;51.35;48.95;64.59;;
46393;Laerm;32099;53.588;10.176;2023-11-19T09:40:42;54.29;48.77;70.38;;
46393;Laerm;32099;53.588;10.176;2023-11-19T09:43:08;52.82;49.56;66.05;;
46393;Laerm;32099;53.588;10.176;2023-11-19T09:45:48;61.02;48.61;77.29;;
46393;Laerm;32099;53.588;10.176;2023-11-19T09:48:14;52.34;49.32;65.41;;
46393;Laerm;32099;53.588;10.176;2023-11-19T09:50:41;55.83;48.54;72.39;;
46393;Laerm;32099;53.588;10.176;2023-11-19T09:53:10;59.77;49.05;79.45;;
46393;Laerm;32099;53.588;10.176;2023-11-19T09:55:35;58.78;50.00;72.88;;
46393;Laerm;32099;53.588;10.176;2023-11-19T09:58:01;53.77;49.60;64.95;;
46393;Laerm;32099;53.588;10.176;2023-11-19T10:00:27;59.99;49.07;73.75;;
46393;Laerm;32099;53.588;10.176;2023-11-19T10:02:54;51.35;48.55;59.27;;
46393;Laerm;32099;53.588;10.176;2023-11-19T10:05:20;59.52;47.97;75.88;;
46393;Laerm;32099;53.588;10.176;2023-11-19T10:07:47;60.91;48.49;80.46;;
46393;Laerm;32099;53.588;10.176;2023-11-19T10:10:16;58.89;48.74;77.69;;
46393;Laerm;32099;53.588;10.176;2023-11-19T10:12:41;60.72;49.62;76.93;;
46393;Laerm;32099;53.588;10.176;2023-11-19T10:15:16;52.53;49.47;64.06;;
46393;Laerm;32099;53.588;10.176;2023-11-19T10:17:43;52.61;49.86;59.39;;
46393;Laerm;32099;53.588;10.176;2023-11-19T10:20:09;59.00;49.55;78.10;;
46393;Laerm;32099;53.588;10.176;2023-11-19T10:22:36;57.14;48.82;72.44;;
46393;Laerm;32099;53.588;10.176;2023-11-19T10:25:02;52.12;48.92;58.59;;
46393;Laerm;32099;53.588;10.176;2023-11-19T10:27:31;56.16;49.81;74.21;;
46393;Laerm;32099;53.588;10.176;2023-11-19T10:29:59;58.45;49.94;76.54;;
46393;Laerm;32099;53.588;10.176;2023-11-19T10:32:24;59.81;50.23;73.49;;
46393;Laerm;32099;53.588;10.176;2023-11-19T10:34:50;54.59;48.66;76.06;;
46393;Laerm;32099;53.588;10.176;2023-11-19T10:37:27;57.66;50.14;74.35;;
46393;Laerm;32099;53.588;10.176;2023-11-19T10:39:53;56.01;48.85;71.05;;
46393;Laerm;32099;53.588;10.176;2023-11-19T10:42:19;52.60;47.86;69.90;;
46393;Laerm;32099;53.588;10.176;2023-11-19T10:44:47;58.10;48.72;75.68;;
46393;Laerm;32099;53.588;10.176;2023-11-19T10:47:14;58.08;49.13;75.61;;
46393;Laerm;32099;53.588;10.176;2023-11-19T10:49:40;54.25;49.12;71.20;;
46393;Laerm;32099;53.588;10.176;2023-11-19T10:52:05;63.03;49.21;80.23;;
46393;Laerm;32099;53.588;10.176;2023-11-19T10:54:34;55.82;50.52;69.75;;
46393;Laerm;32099;53.588;10.176;2023-11-19T10:57:02;62.45;49.75;82.74;;
46393;Laerm;32099;53.588;10.176;2023-11-19T10:59:30;58.87;49.38;76.85;;
46393;Laerm;32099;53.588;10.176;2023-11-19T11:02:00;59.52;49.64;74.38;;
46393;Laerm;32099;53.588;10.176;2023-11-19T11:04:30;59.70;49.54;76.84;;
46393;Laerm;32099;53.588;10.176;2023-11-19T11:06:59;59.67;49.55;77.64;;
46393;Laerm;32099;53.588;10.176;2023-11-19T11:09:27;62.18;49.77;75.76;;
46393;Laerm;32099;53.588;10.176;2023-11-19T11:11:52;59.89;49.25;74.90;;
46393;Laerm;32099;53.588;10.176;2023-11-19T11:14:21;52.75;49.15;65.99;;
46393;Laerm;32099;53.588;10.176;2023-11-19T11:16:48;59.24;48.78;76.00;;
46393;Laerm;32099;53.588;10.176;2023-11-19T11:19:17;54.38;49.56;70.28;;
46393;Laerm;32099;53.588;10.176;2023-11-19T11:21:47;58.37;48.86;72.98;;
46393;Laerm;32099;53.588;10.176;2023-11-19T11:24:33;63.63;49.13;83.89;;
46393;Laerm;32099;53.588;10.176;2023-11-19T11:27:29;60.47;48.93;77.48;;
46393;Laerm;32099;53.588;10.176;2023-11-19T11:30:08;52.40;49.14;64.05;;
46393;Laerm;32099;53.588;10.176;2023-11-19T11:32:41;62.81;50.77;79.14;;
46393;Laerm;32099;53.588;10.176;2023-11-19T11:35:24;52.51;49.79;65.38;;
46393;Laerm;32099;53.588;10.176;2023-11-19T11:37:58;52.87;49.57;64.73;;
46393;Laerm;32099;53.588;10.176;2023-11-19T11:40:26;55.93;49.51;73.64;;
46393;Laerm;32099;53.588;10.176;2023-11-19T11:42:51;60.69;49.27;75.29;;
46393;Laerm;32099;53.588;10.176;2023-11-19T11:45:17;59.83;50.72;78.40;;
46393;Laerm;32099;53.588;10.176;2023-11-19T11:48:08;63.43;50.31;77.90;;
46393;Laerm;32099;53.588;10.176;2023-11-19T11:50:47;54.64;49.75;70.80;;
46393;Laerm;32099;53.588;10.176;2023-11-19T11:53:15;65.27;50.71;88.37;;
46393;Laerm;32099;53.588;10.176;2023-11-19T11:55:55;56.06;48.98;72.08;;
46393;Laerm;32099;53.588;10.176;2023-11-19T11:58:22;57.63;50.16;73.41;;
46393;Laerm;32099;53.588;10.176;2023-11-19T12:00:51;61.88;49.85;76.96;;
46393;Laerm;32099;53.588;10.176;2023-11-19T12:03:20;61.24;53.53;67.35;;
46393;Laerm;32099;53.588;10.176;2023-11-19T12:05:49;62.91;52.34;74.27;;
46393;Laerm;32099;53.588;10.176;2023-11-19T12:08:18;57.72;50.55;65.24;;
46393;Laerm;32099;53.588;10.176;2023-11-19T12:10:46;62.57;48.77;79.39;;
46393;Laerm;32099;53.588;10.176;2023-11-19T12:13:12;55.44;49.55;77.67;;
46393;Laerm;32099;53.588;10.176;2023-11-19T12:16:07;56.24;49.35;80.60;;
46393;Laerm;32099;53.588;10.176;2023-11-19T12:18:32;59.99;49.34;76.94;;
46393;Laerm;32099;53.588;10.176;2023-11-19T12:21:01;57.30;49.28;68.79;;
46393;Laerm;32099;53.588;10.176;2023-11-19T12:23:28;57.72;48.52;75.56;;
46393;Laerm;32099;53.588;10.176;2023-11-19T12:25:54;58.24;48.83;74.74;;
46393;Laerm;32099;53.588;10.176;2023-11-19T12:28:20;58.22;48.86;75.54;;
46393;Laerm;32099;53.588;10.176;2023-11-19T12:30:46;61.93;48.62;78.76;;
46393;Laerm;32099;53.588;10.176;2023-11-19T12:33:12;57.33;49.35;73.26;;
46393;Laerm;32099;53.588;10.176;2023-11-19T12:35:39;59.44;49.31;75.41;;
46393;Laerm;32099;53.588;10.176;2023-11-19T12:38:08;61.25;50.27;78.77;;
46393;Laerm;32099;53.588;10.176;2023-11-19T12:40:34;63.04;50.25;79.60;;
46393;Laerm;32099;53.588;10.176;2023-11-19T12:43:00;58.78;48.86;76.46;;
46393;Laerm;32099;53.588;10.176;2023-11-19T12:45:34;61.43;49.28;77.12;;
46393;Laerm;32099;53.588;10.176;2023-11-19T12:48:07;53.13;50.10;60.27;;
46393;Laerm;32099;53.588;10.176;2023-11-19T12:50:51;51.52;48.30;64.25;;
46393;Laerm;32099;53.588;10.176;2023-11-19T12:53:19;59.89;49.39;74.64;;
46393;Laerm;32099;53.588;10.176;2023-11-19T12:55:45;60.29;50.56;74.83;;
46393;Laerm;32099;53.588;10.176;2023-11-19T12:58:27;54.13;50.31;65.09;;
46393;Laerm;32099;53.588;10.176;2023-11-19T13:00:59;57.17;49.61;73.23;;
46393;Laerm;32099;53.588;10.176;2023-11-19T13:03:29;63.31;49.36;80.58;;
46393;Laerm;32099;53.588;10.176;2023-11-19T13:06:01;63.60;49.21;81.03;;
46393;Laerm;32099;53.588;10.176;2023-11-19T13:08:35;52.55;49.26;71.65;;
46393;Laerm;32099;53.588;10.176;2023-11-19T13:11:01;64.82;49.21;81.76;;
46393;Laerm;32099;53.588;10.176;2023-11-19T13:13:27;64.65;50.02;82.41;;
46393;Laerm;32099;53.588;10.176;2023-11-19T13:15:53;59.15;49.46;77.78;;
46393;Laerm;32099;53.588;10.176;2023-11-19T13:18:18;60.41;48.95;76.87;;
46393;Laerm;32099;53.588;10.176;2023-11-19T13:20:44;51.77;48.76;61.25;;
46393;Laerm;32099;53.588;10.176;2023-11-19T13:23:10;56.63;49.61;67.94;;
46393;Laerm;32099;53.588;10.176;2023-11-19T13:25:38;61.66;50.29;77.02;;
46393;Laerm;32099;53.588;10.176;2023-11-19T13:28:04;60.88;50.70;77.84;;
46393;Laerm;32099;53.588;10.176;2023-11-19T13:30:30;57.75;49.98;75.17;;
46393;Laerm;32099;53.588;10.176;2023-11-19T13:32:55;51.63;49.24;57.25;;
46393;Laerm;32099;53.588;10.176;2023-11-19T13:35:21;53.09;48.94;60.92;;
46393;Laerm;32099;53.588;10.176;2023-11-19T13:37:47;54.55;50.31;61.36;;
46393;Laerm;32099;53.588;10.176;2023-11-19T13:40:13;61.73;49.95;77.43;;
46393;Laerm;32099;53.588;10.176;2023-11-19T13:42:41;64.18;49.58;79.99;;
46393;Laerm;32099;53.588;10.176;2023-11-19T13:45:09;55.51;49.62;65.37;;
46393;Laerm;32099;53.588;10.176;2023-11-19T13:47:34;60.53;49.33;77.14;;
46393;Laerm;32099;53.588;10.176;2023-11-19T13:50:00;56.75;49.74;73.50;;
46393;Laerm;32099;53.588;10.176;2023-11-19T13:52:26;53.00;48.96;60.06;;
46393;Laerm;32099;53.588;10.176;2023-11-19T13:54:51;59.72;50.79;79.73;;
46393;Laerm;32099;53.588;10.176;2023-11-19T13:57:17;53.82;50.21;60.07;;
46393;Laerm;32099;53.588;10.176;2023-11-19T13:59:45;59.58;48.67;80.52;;
46393;Laerm;32099;53.588;10.176;2023-11-19T14:02:11;54.75;48.53;68.94;;